sensor_id;sensor_type;location;lat;lon;timestamp;pressure;altitude;pressure_sealevel;temperature;humidity
73981;BME280;62348;51.412;5.436;2023-01-10T00:01:50;101134.88;;;4.64;93.31
73981;BME280;62348;51.412;5.436;2023-01-10T00:04:15;101134.28;;;4.62;93.15
73981;BME280;62348;51.412;5.436;2023-01-10T00:06:40;101143.38;;;4.54;93.15
73981;BME280;62348;51.412;5.436;2023-01-10T00:09:06;101145.00;;;4.55;93.26
73981;BME280;62348;51.412;5.436;2023-01-10T00:11:31;101138.63;;;4.49;93.25
73981;BME280;62348;51.412;5.436;2023-01-10T00:14:15;101150.63;;;4.47;93.32
73981;BME280;62348;51.412;5.436;2023-01-10T00:16:41;101159.28;;;4.42;93.40
73981;BME280;62348;51.412;5.436;2023-01-10T00:19:07;101165.88;;;4.40;93.22
73981;BME280;62348;51.412;5.436;2023-01-10T00:21:34;101160.97;;;4.37;93.18
73981;BME280;62348;51.412;5.436;2023-01-10T00:24:00;101168.59;;;4.33;92.97
73981;BME280;62348;51.412;5.436;2023-01-10T00:26:37;101171.88;;;4.28;93.37
73981;BME280;62348;51.412;5.436;2023-01-10T00:29:03;101180.16;;;4.27;93.06
73981;BME280;62348;51.412;5.436;2023-01-10T00:31:31;101183.84;;;4.26;93.52
73981;BME280;62348;51.412;5.436;2023-01-10T00:33:57;101191.88;;;4.26;93.30
73981;BME280;62348;51.412;5.436;2023-01-10T00:36:22;101210.00;;;4.24;93.18
73981;BME280;62348;51.412;5.436;2023-01-10T00:38:48;101206.50;;;4.17;92.96
73981;BME280;62348;51.412;5.436;2023-01-10T00:41:14;101204.66;;;4.17;92.90
73981;BME280;62348;51.412;5.436;2023-01-10T00:43:58;101207.34;;;4.10;92.64
73981;BME280;62348;51.412;5.436;2023-01-10T00:46:24;101205.50;;;4.11;93.10
73981;BME280;62348;51.412;5.436;2023-01-10T00:48:50;101212.09;;;4.08;92.93
73981;BME280;62348;51.412;5.436;2023-01-10T00:51:15;101210.63;;;4.06;92.70
73981;BME280;62348;51.412;5.436;2023-01-10T00:53:41;101209.41;;;4.02;93.05
73981;BME280;62348;51.412;5.436;2023-01-10T00:56:06;101218.50;;;4.01;93.08
73981;BME280;62348;51.412;5.436;2023-01-10T00:58:32;101217.03;;;3.98;93.14
73981;BME280;62348;51.412;5.436;2023-01-10T01:00:58;101221.38;;;3.99;93.11
73981;BME280;62348;51.412;5.436;2023-01-10T01:03:23;101217.03;;;3.98;93.24
73981;BME280;62348;51.412;5.436;2023-01-10T01:05:49;101217.03;;;3.98;93.66
73981;BME280;62348;51.412;5.436;2023-01-10T01:08:16;101223.44;;;3.97;93.58
73981;BME280;62348;51.412;5.436;2023-01-10T01:10:42;101223.63;;;3.96;93.67
73981;BME280;62348;51.412;5.436;2023-01-10T01:13:18;101224.25;;;3.98;94.02
73981;BME280;62348;51.412;5.436;2023-01-10T01:15:44;101227.75;;;3.98;93.92
73981;BME280;62348;51.412;5.436;2023-01-10T01:18:15;101229.41;;;3.99;93.90
73981;BME280;62348;51.412;5.436;2023-01-10T01:20:41;101236.81;;;3.97;93.56
73981;BME280;62348;51.412;5.436;2023-01-10T01:23:07;101239.28;;;3.99;93.95
73981;BME280;62348;51.412;5.436;2023-01-10T01:25:33;101249.56;;;4.02;94.17
73981;BME280;62348;51.412;5.436;2023-01-10T01:27:58;101253.69;;;4.04;94.17
73981;BME280;62348;51.412;5.436;2023-01-10T01:30:24;101252.84;;;4.04;94.38
73981;BME280;62348;51.412;5.436;2023-01-10T01:32:49;101259.66;;;4.06;94.55
73981;BME280;62348;51.412;5.436;2023-01-10T01:35:15;101257.59;;;4.08;94.37
73981;BME280;62348;51.412;5.436;2023-01-10T01:37:42;101268.09;;;4.10;94.15
73981;BME280;62348;51.412;5.436;2023-01-10T01:40:12;101267.25;;;4.09;93.97
73981;BME280;62348;51.412;5.436;2023-01-10T01:42:38;101262.31;;;4.13;94.17
73981;BME280;62348;51.412;5.436;2023-01-10T01:50:01;101285.59;;;4.19;94.23
73981;BME280;62348;51.412;5.436;2023-01-10T01:52:29;101282.69;;;4.21;94.37
73981;BME280;62348;51.412;5.436;2023-01-10T01:54:58;101296.69;;;4.23;94.43
73981;BME280;62348;51.412;5.436;2023-01-10T01:57:27;101293.81;;;4.24;94.87
73981;BME280;62348;51.412;5.436;2023-01-10T01:59:54;101298.75;;;4.27;95.24
73981;BME280;62348;51.412;5.436;2023-01-10T02:02:44;101294.63;;;4.32;94.55
73981;BME280;62348;51.412;5.436;2023-01-10T02:05:14;101286.59;;;4.32;94.89
73981;BME280;62348;51.412;5.436;2023-01-10T02:07:44;101283.50;;;4.35;95.33
73981;BME280;62348;51.412;5.436;2023-01-10T02:10:20;101290.28;;;4.37;95.05
73981;BME280;62348;51.412;5.436;2023-01-10T02:12:48;101287.19;;;4.34;94.37
73981;BME280;62348;51.412;5.436;2023-01-10T02:15:15;101291.75;;;4.33;94.26
73981;BME280;62348;51.412;5.436;2023-01-10T02:17:41;101297.09;;;4.33;94.21
73981;BME280;62348;51.412;5.436;2023-01-10T02:20:09;101294.41;;;4.33;93.93
73981;BME280;62348;51.412;5.436;2023-01-10T02:33:46;101300.63;;;4.27;93.82
73981;BME280;62348;51.412;5.436;2023-01-10T02:39:22;101303.06;;;4.28;93.97
73981;BME280;62348;51.412;5.436;2023-01-10T02:44:24;101300.81;;;4.25;93.66
73981;BME280;62348;51.412;5.436;2023-01-10T02:46:51;101311.72;;;4.24;93.39
73981;BME280;62348;51.412;5.436;2023-01-10T02:49:17;101315.22;;;4.24;93.73
73981;BME280;62348;51.412;5.436;2023-01-10T02:51:43;101322.63;;;4.22;93.47
73981;BME280;62348;51.412;5.436;2023-01-10T02:54:22;101319.75;;;4.24;93.91
73981;BME280;62348;51.412;5.436;2023-01-10T03:08:39;101340.34;;;4.17;93.58
73981;BME280;62348;51.412;5.436;2023-01-10T03:11:09;101334.16;;;4.09;93.22
73981;BME280;62348;51.412;5.436;2023-01-10T03:13:45;101341.38;;;4.09;93.50
73981;BME280;62348;51.412;5.436;2023-01-10T03:16:19;101347.13;;;4.06;93.29
73981;BME280;62348;51.412;5.436;2023-01-10T03:18:57;101350.44;;;4.08;93.63
73981;BME280;62348;51.412;5.436;2023-01-10T03:21:26;101362.97;;;4.07;93.27
73981;BME280;62348;51.412;5.436;2023-01-10T03:23:57;101367.50;;;4.07;93.63
73981;BME280;62348;51.412;5.436;2023-01-10T03:26:30;101372.06;;;4.06;93.31
73981;BME280;62348;51.412;5.436;2023-01-10T03:29:09;101381.72;;;4.07;93.19
73981;BME280;62348;51.412;5.436;2023-01-10T03:31:42;101376.56;;;4.06;93.72
73981;BME280;62348;51.412;5.436;2023-01-10T03:34:09;101377.41;;;4.06;93.28
73981;BME280;62348;51.412;5.436;2023-01-10T03:39:32;101384.00;;;4.10;93.52
73981;BME280;62348;51.412;5.436;2023-01-10T03:47:24;101387.47;;;4.11;93.68
73981;BME280;62348;51.412;5.436;2023-01-10T03:50:16;101389.97;;;4.13;93.74
73981;BME280;62348;51.412;5.436;2023-01-10T03:52:44;101402.34;;;4.14;93.96
73981;BME280;62348;51.412;5.436;2023-01-10T03:55:11;101403.97;;;4.15;94.23
73981;BME280;62348;51.412;5.436;2023-01-10T03:57:40;101407.69;;;4.14;94.18
73981;BME280;62348;51.412;5.436;2023-01-10T04:00:08;101406.63;;;4.15;93.95
73981;BME280;62348;51.412;5.436;2023-01-10T04:02:34;101411.78;;;4.16;93.84
73981;BME280;62348;51.412;5.436;2023-01-10T04:04:59;101405.63;;;4.16;93.74
73981;BME280;62348;51.412;5.436;2023-01-10T04:07:25;101414.47;;;4.16;93.87
73981;BME280;62348;51.412;5.436;2023-01-10T04:09:51;101412.41;;;4.18;94.15
73981;BME280;62348;51.412;5.436;2023-01-10T04:12:16;101414.88;;;4.20;94.00
73981;BME280;62348;51.412;5.436;2023-01-10T04:14:42;101418.56;;;4.19;94.08
73981;BME280;62348;51.412;5.436;2023-01-10T04:17:10;101420.25;;;4.20;93.95
73981;BME280;62348;51.412;5.436;2023-01-10T04:19:35;101427.03;;;4.22;93.90
73981;BME280;62348;51.412;5.436;2023-01-10T04:22:00;101429.72;;;4.22;93.99
73981;BME280;62348;51.412;5.436;2023-01-10T04:24:26;101434.88;;;4.24;93.86
73981;BME280;62348;51.412;5.436;2023-01-10T04:26:51;101438.16;;;4.26;93.89
73981;BME280;62348;51.412;5.436;2023-01-10T04:29:16;101442.69;;;4.25;93.87
73981;BME280;62348;51.412;5.436;2023-01-10T04:31:42;101448.88;;;4.26;93.93
73981;BME280;62348;51.412;5.436;2023-01-10T04:34:08;101450.09;;;4.30;94.06
73981;BME280;62348;51.412;5.436;2023-01-10T04:36:34;101441.25;;;4.29;93.91
73981;BME280;62348;51.412;5.436;2023-01-10T04:39:01;101436.72;;;4.30;94.23
73981;BME280;62348;51.412;5.436;2023-01-10T04:41:27;101440.84;;;4.33;94.09
73981;BME280;62348;51.412;5.436;2023-01-10T04:43:52;101436.31;;;4.33;93.79
73981;BME280;62348;51.412;5.436;2023-01-10T04:46:17;101438.56;;;4.36;93.90
73981;BME280;62348;51.412;5.436;2023-01-10T04:48:43;101436.31;;;4.33;93.42
73981;BME280;62348;51.412;5.436;2023-01-10T04:51:08;101449.50;;;4.35;93.30
73981;BME280;62348;51.412;5.436;2023-01-10T04:53:34;101462.88;;;4.35;93.92
73981;BME280;62348;51.412;5.436;2023-01-10T04:56:04;101475.22;;;4.36;93.57
73981;BME280;62348;51.412;5.436;2023-01-10T04:58:37;101463.50;;;4.37;93.53
73981;BME280;62348;51.412;5.436;2023-01-10T05:01:11;101459.97;;;4.36;93.67
73981;BME280;62348;51.412;5.436;2023-01-10T05:03:36;101449.28;;;4.36;93.47
73981;BME280;62348;51.412;5.436;2023-01-10T05:06:03;101450.53;;;4.34;93.39
73981;BME280;62348;51.412;5.436;2023-01-10T05:08:28;101461.03;;;4.35;93.23
73981;BME280;62348;51.412;5.436;2023-01-10T05:10:54;101464.94;;;4.33;93.48
73981;BME280;62348;51.412;5.436;2023-01-10T05:13:20;101469.88;;;4.36;93.24
73981;BME280;62348;51.412;5.436;2023-01-10T05:15:45;101481.00;;;4.33;93.26
73981;BME280;62348;51.412;5.436;2023-01-10T05:18:11;101491.50;;;4.34;93.82
73981;BME280;62348;51.412;5.436;2023-01-10T05:20:36;101506.94;;;4.32;93.09
73981;BME280;62348;51.412;5.436;2023-01-10T05:23:02;101512.91;;;4.34;93.59
73981;BME280;62348;51.412;5.436;2023-01-10T05:25:27;101521.78;;;4.35;93.53
73981;BME280;62348;51.412;5.436;2023-01-10T05:27:53;101510.25;;;4.34;93.60
73981;BME280;62348;51.412;5.436;2023-01-10T05:30:19;101511.91;;;4.35;93.46
73981;BME280;62348;51.412;5.436;2023-01-10T05:32:45;101526.91;;;4.36;93.89
73981;BME280;62348;51.412;5.436;2023-01-10T05:35:10;101524.91;;;4.38;93.82
73981;BME280;62348;51.412;5.436;2023-01-10T05:37:35;101525.72;;;4.39;93.54
73981;BME280;62348;51.412;5.436;2023-01-10T05:40:01;101514.19;;;4.38;93.53
73981;BME280;62348;51.412;5.436;2023-01-10T05:42:27;101519.75;;;4.37;93.53
73981;BME280;62348;51.412;5.436;2023-01-10T05:44:55;101518.50;;;4.39;93.76
73981;BME280;62348;51.412;5.436;2023-01-10T05:47:20;101526.72;;;4.38;92.92
73981;BME280;62348;51.412;5.436;2023-01-10T05:49:46;101532.09;;;4.38;92.87
73981;BME280;62348;51.412;5.436;2023-01-10T05:52:11;101538.28;;;4.38;93.38
73981;BME280;62348;51.412;5.436;2023-01-10T05:54:36;101529.59;;;4.36;93.42
73981;BME280;62348;51.412;5.436;2023-01-10T05:57:02;101533.94;;;4.37;93.05
73981;BME280;62348;51.412;5.436;2023-01-10T05:59:27;101545.66;;;4.36;92.76
73981;BME280;62348;51.412;5.436;2023-01-10T06:01:53;101543.00;;;4.36;92.57
73981;BME280;62348;51.412;5.436;2023-01-10T06:04:18;101538.88;;;4.34;92.36
73981;BME280;62348;51.412;5.436;2023-01-10T06:06:43;101549.59;;;4.34;92.39
73981;BME280;62348;51.412;5.436;2023-01-10T06:09:09;101552.47;;;4.32;92.30
73981;BME280;62348;51.412;5.436;2023-01-10T06:11:34;101558.84;;;4.31;92.52
73981;BME280;62348;51.412;5.436;2023-01-10T06:14:03;101547.28;;;4.30;92.41
73981;BME280;62348;51.412;5.436;2023-01-10T06:16:29;101539.25;;;4.30;92.52
73981;BME280;62348;51.412;5.436;2023-01-10T06:18:54;101545.47;;;4.31;91.82
73981;BME280;62348;51.412;5.436;2023-01-10T06:21:19;101534.75;;;4.31;92.37
73981;BME280;62348;51.412;5.436;2023-01-10T06:23:45;101542.16;;;4.29;92.21
73981;BME280;62348;51.412;5.436;2023-01-10T06:26:11;101546.69;;;4.28;92.32
73981;BME280;62348;51.412;5.436;2023-01-10T06:28:36;101545.84;;;4.28;92.36
73981;BME280;62348;51.412;5.436;2023-01-10T06:31:01;101542.16;;;4.29;92.54
73981;BME280;62348;51.412;5.436;2023-01-10T06:33:27;101555.75;;;4.27;92.24
73981;BME280;62348;51.412;5.436;2023-01-10T06:35:52;101557.81;;;4.25;91.98
73981;BME280;62348;51.412;5.436;2023-01-10T06:38:17;101568.50;;;4.25;91.95
73981;BME280;62348;51.412;5.436;2023-01-10T06:40:43;101564.59;;;4.21;91.99
73981;BME280;62348;51.412;5.436;2023-01-10T06:43:08;101564.59;;;4.21;91.59
73981;BME280;62348;51.412;5.436;2023-01-10T06:45:34;101566.00;;;4.17;91.83
73981;BME280;62348;51.412;5.436;2023-01-10T06:47:59;101564.56;;;4.15;92.14
73981;BME280;62348;51.412;5.436;2023-01-10T06:50:25;101567.63;;;4.11;91.69
73981;BME280;62348;51.412;5.436;2023-01-10T06:52:58;101572.56;;;4.08;91.90
73981;BME280;62348;51.412;5.436;2023-01-10T06:55:25;101578.31;;;4.05;91.82
73981;BME280;62348;51.412;5.436;2023-01-10T06:58:01;101590.88;;;4.04;91.76
73981;BME280;62348;51.412;5.436;2023-01-10T07:00:28;101592.28;;;4.00;92.12
73981;BME280;62348;51.412;5.436;2023-01-10T07:02:56;101604.84;;;4.00;91.83
73981;BME280;62348;51.412;5.436;2023-01-10T07:05:22;101603.41;;;3.97;91.76
73981;BME280;62348;51.412;5.436;2023-01-10T07:07:47;101604.81;;;3.93;91.72
73981;BME280;62348;51.412;5.436;2023-01-10T07:10:13;101603.56;;;3.89;91.71
73981;BME280;62348;51.412;5.436;2023-01-10T07:12:38;101615.47;;;3.86;91.52
73981;BME280;62348;51.412;5.436;2023-01-10T07:15:04;101624.53;;;3.85;91.84
73981;BME280;62348;51.412;5.436;2023-01-10T07:17:30;101622.25;;;3.82;91.73
73981;BME280;62348;51.412;5.436;2023-01-10T07:19:56;101627.16;;;3.79;91.75
73981;BME280;62348;51.412;5.436;2023-01-10T07:22:21;101635.00;;;3.80;92.23
73981;BME280;62348;51.412;5.436;2023-01-10T07:24:47;101629.00;;;3.78;91.93
73981;BME280;62348;51.412;5.436;2023-01-10T07:27:13;101640.72;;;3.77;92.40
73981;BME280;62348;51.412;5.436;2023-01-10T07:29:38;101652.47;;;3.76;92.14
73981;BME280;62348;51.412;5.436;2023-01-10T07:32:04;101654.09;;;3.77;92.15
73981;BME280;62348;51.412;5.436;2023-01-10T07:34:29;101651.84;;;3.74;92.36
73981;BME280;62348;51.412;5.436;2023-01-10T07:36:55;101653.66;;;3.74;92.15
73981;BME280;62348;51.412;5.436;2023-01-10T07:39:20;101667.44;;;3.70;92.55
73981;BME280;62348;51.412;5.436;2023-01-10T07:41:46;101677.94;;;3.72;92.45
73981;BME280;62348;51.412;5.436;2023-01-10T07:44:12;101671.13;;;3.69;92.04
73981;BME280;62348;51.412;5.436;2023-01-10T07:46:38;101675.03;;;3.67;92.14
73981;BME280;62348;51.412;5.436;2023-01-10T07:49:04;101675.66;;;3.69;92.15
73981;BME280;62348;51.412;5.436;2023-01-10T07:51:30;101677.69;;;3.67;92.25
73981;BME280;62348;51.412;5.436;2023-01-10T07:53:55;101677.06;;;3.65;91.79
73981;BME280;62348;51.412;5.436;2023-01-10T07:56:21;101673.56;;;3.64;92.57
73981;BME280;62348;51.412;5.436;2023-01-10T07:58:46;101675.81;;;3.61;92.01
73981;BME280;62348;51.412;5.436;2023-01-10T08:01:12;101674.16;;;3.60;91.95
73981;BME280;62348;51.412;5.436;2023-01-10T08:03:37;101676.81;;;3.60;92.17
73981;BME280;62348;51.412;5.436;2023-01-10T08:06:05;101681.53;;;3.58;92.43
73981;BME280;62348;51.412;5.436;2023-01-10T08:08:32;101681.53;;;3.58;92.22
73981;BME280;62348;51.412;5.436;2023-01-10T08:10:58;101671.03;;;3.56;92.15
73981;BME280;62348;51.412;5.436;2023-01-10T08:13:30;101675.38;;;3.57;92.42
73981;BME280;62348;51.412;5.436;2023-01-10T08:15:56;101669.84;;;3.59;92.77
73981;BME280;62348;51.412;5.436;2023-01-10T08:18:22;101669.84;;;3.59;92.00
73981;BME280;62348;51.412;5.436;2023-01-10T08:20:49;101669.84;;;3.59;92.48
73981;BME280;62348;51.412;5.436;2023-01-10T08:23:15;101671.28;;;3.61;91.86
73981;BME280;62348;51.412;5.436;2023-01-10T08:25:41;101671.91;;;3.63;91.97
73981;BME280;62348;51.412;5.436;2023-01-10T08:28:06;101672.53;;;3.65;92.21
73981;BME280;62348;51.412;5.436;2023-01-10T08:30:32;101681.38;;;3.66;91.76
73981;BME280;62348;51.412;5.436;2023-01-10T08:32:57;101681.81;;;3.69;92.17
73981;BME280;62348;51.412;5.436;2023-01-10T08:35:25;101678.78;;;3.72;92.13
73981;BME280;62348;51.412;5.436;2023-01-10T08:37:50;101685.56;;;3.75;92.39
73981;BME280;62348;51.412;5.436;2023-01-10T08:40:16;101674.50;;;3.78;92.46
73981;BME280;62348;51.412;5.436;2023-01-10T08:42:41;101677.41;;;3.83;92.70
73981;BME280;62348;51.412;5.436;2023-01-10T08:45:07;101682.56;;;3.85;92.37
73981;BME280;62348;51.412;5.436;2023-01-10T08:47:33;101673.31;;;3.87;91.79
73981;BME280;62348;51.412;5.436;2023-01-10T08:49:58;101674.56;;;3.91;92.04
73981;BME280;62348;51.412;5.436;2023-01-10T08:52:24;101684.06;;;3.94;92.11
73981;BME280;62348;51.412;5.436;2023-01-10T08:54:49;101670.47;;;3.96;91.94
73981;BME280;62348;51.412;5.436;2023-01-10T08:57:15;101675.44;;;3.99;91.46
73981;BME280;62348;51.412;5.436;2023-01-10T08:59:40;101672.56;;;4.00;91.78
73981;BME280;62348;51.412;5.436;2023-01-10T09:02:05;101663.31;;;4.03;91.51
73981;BME280;62348;51.412;5.436;2023-01-10T09:04:37;101665.59;;;4.06;91.89
73981;BME280;62348;51.412;5.436;2023-01-10T09:07:02;101657.19;;;4.09;91.82
73981;BME280;62348;51.412;5.436;2023-01-10T09:09:28;101670.19;;;4.12;92.02
73981;BME280;62348;51.412;5.436;2023-01-10T09:11:53;101667.09;;;4.15;91.64
73981;BME280;62348;51.412;5.436;2023-01-10T09:14:18;101661.34;;;4.18;91.77
73981;BME280;62348;51.412;5.436;2023-01-10T09:16:44;101661.97;;;4.20;91.86
73981;BME280;62348;51.412;5.436;2023-01-10T09:19:10;101658.91;;;4.23;91.54
73981;BME280;62348;51.412;5.436;2023-01-10T09:21:36;101656.84;;;4.25;91.62
73981;BME280;62348;51.412;5.436;2023-01-10T09:24:01;101662.84;;;4.27;91.26
73981;BME280;62348;51.412;5.436;2023-01-10T09:26:27;101668.00;;;4.29;91.40
73981;BME280;62348;51.412;5.436;2023-01-10T09:28:53;101655.44;;;4.29;91.27
73981;BME280;62348;51.412;5.436;2023-01-10T09:31:18;101663.28;;;4.31;91.71
73981;BME280;62348;51.412;5.436;2023-01-10T09:33:43;101660.59;;;4.31;91.32
73981;BME280;62348;51.412;5.436;2023-01-10T09:36:11;101660.41;;;4.33;91.21
73981;BME280;62348;51.412;5.436;2023-01-10T09:38:37;101670.69;;;4.36;91.48
73981;BME280;62348;51.412;5.436;2023-01-10T09:46:58;101657.53;;;4.41;90.95
73981;BME280;62348;51.412;5.436;2023-01-10T09:50:14;101659.19;;;4.42;90.71
73981;BME280;62348;51.412;5.436;2023-01-10T09:52:49;101656.72;;;4.47;91.32
73981;BME280;62348;51.412;5.436;2023-01-10T09:55:30;101656.53;;;4.48;90.64
73981;BME280;62348;51.412;5.436;2023-01-10T09:57:59;101649.94;;;4.51;90.62
73981;BME280;62348;51.412;5.436;2023-01-10T10:00:49;101655.72;;;4.55;90.21
73981;BME280;62348;51.412;5.436;2023-01-10T10:03:24;101647.31;;;4.58;90.33
73981;BME280;62348;51.412;5.436;2023-01-10T10:05:51;101652.47;;;4.59;90.34
73981;BME280;62348;51.412;5.436;2023-01-10T10:08:18;101660.91;;;4.63;90.67
73981;BME280;62348;51.412;5.436;2023-01-10T10:10:59;101659.50;;;4.67;90.83
73981;BME280;62348;51.412;5.436;2023-01-10T10:35:01;101627.59;;;4.99;89.87
73981;BME280;62348;51.412;5.436;2023-01-10T10:37:32;101615.66;;;5.01;89.35
73981;BME280;62348;51.412;5.436;2023-01-10T10:40:02;101610.09;;;5.03;89.98
73981;BME280;62348;51.412;5.436;2023-01-10T10:42:33;101605.97;;;5.07;89.92
73981;BME280;62348;51.412;5.436;2023-01-10T10:45:21;101592.97;;;5.11;90.46
73981;BME280;62348;51.412;5.436;2023-01-10T10:47:56;101591.94;;;5.12;90.29
73981;BME280;62348;51.412;5.436;2023-01-10T10:50:31;101587.19;;;5.14;89.89
73981;BME280;62348;51.412;5.436;2023-01-10T10:52:59;101595.03;;;5.15;90.13
73981;BME280;62348;51.412;5.436;2023-01-10T10:55:30;101598.34;;;5.17;89.52
73981;BME280;62348;51.412;5.436;2023-01-10T10:57:57;101585.53;;;5.19;89.68
73981;BME280;62348;51.412;5.436;2023-01-10T11:00:23;101588.03;;;5.21;89.13
73981;BME280;62348;51.412;5.436;2023-01-10T11:03:03;101585.75;;;5.24;89.36
73981;BME280;62348;51.412;5.436;2023-01-10T11:08:00;101567.19;;;5.36;92.25
73981;BME280;62348;51.412;5.436;2023-01-10T11:10:29;101563.66;;;5.42;90.64
73981;BME280;62348;51.412;5.436;2023-01-10T11:13:11;101569.22;;;5.47;89.45
73981;BME280;62348;51.412;5.436;2023-01-10T11:15:43;101567.59;;;5.46;89.13
73981;BME280;62348;51.412;5.436;2023-01-10T11:18:18;101561.78;;;5.50;89.28
73981;BME280;62348;51.412;5.436;2023-01-10T11:20:51;101559.09;;;5.50;88.98
73981;BME280;62348;51.412;5.436;2023-01-10T11:26:01;101552.53;;;5.52;88.54
73981;BME280;62348;51.412;5.436;2023-01-10T11:28:31;101550.84;;;5.51;88.94
73981;BME280;62348;51.412;5.436;2023-01-10T11:30:58;101557.66;;;5.54;88.59
73981;BME280;62348;51.412;5.436;2023-01-10T11:33:30;101559.31;;;5.55;89.07
73981;BME280;62348;51.412;5.436;2023-01-10T11:36:05;101557.25;;;5.57;88.07
73981;BME280;62348;51.412;5.436;2023-01-10T11:38:33;101554.75;;;5.55;88.60
73981;BME280;62348;51.412;5.436;2023-01-10T11:41:22;101547.13;;;5.59;89.07
73981;BME280;62348;51.412;5.436;2023-01-10T11:43:49;101541.75;;;5.59;88.89
73981;BME280;62348;51.412;5.436;2023-01-10T11:46:23;101548.56;;;5.61;88.95
73981;BME280;62348;51.412;5.436;2023-01-10T11:48:59;101546.72;;;5.62;89.21
73981;BME280;62348;51.412;5.436;2023-01-10T11:51:29;101545.66;;;5.63;88.98
73981;BME280;62348;51.412;5.436;2023-01-10T11:54:00;101542.78;;;5.64;88.20
73981;BME280;62348;51.412;5.436;2023-01-10T11:56:36;101540.09;;;5.64;88.61
73981;BME280;62348;51.412;5.436;2023-01-10T11:59:16;101536.16;;;5.67;88.29
73981;BME280;62348;51.412;5.436;2023-01-10T12:02:03;101530.59;;;5.68;88.48
73981;BME280;62348;51.412;5.436;2023-01-10T12:04:40;101537.81;;;5.68;87.39
73981;BME280;62348;51.412;5.436;2023-01-10T12:07:08;101528.72;;;5.69;87.80
73981;BME280;62348;51.412;5.436;2023-01-10T12:12:05;101515.94;;;5.71;87.82
73981;BME280;62348;51.412;5.436;2023-01-10T12:14:38;101506.00;;;5.72;88.17
73981;BME280;62348;51.412;5.436;2023-01-10T12:17:03;101513.63;;;5.75;87.90
73981;BME280;62348;51.412;5.436;2023-01-10T12:19:29;101503.75;;;5.75;87.61
73981;BME280;62348;51.412;5.436;2023-01-10T12:22:00;101504.34;;;5.77;87.50
73981;BME280;62348;51.412;5.436;2023-01-10T12:24:39;101493.41;;;5.79;87.61
73981;BME280;62348;51.412;5.436;2023-01-10T12:27:10;101494.00;;;5.81;87.30
73981;BME280;62348;51.412;5.436;2023-01-10T12:29:44;101489.47;;;5.81;87.45
73981;BME280;62348;51.412;5.436;2023-01-10T12:32:21;101484.69;;;5.83;87.52
73981;BME280;62348;51.412;5.436;2023-01-10T12:34:54;101482.03;;;5.83;87.28
73981;BME280;62348;51.412;5.436;2023-01-10T12:40:03;101470.03;;;5.86;87.14
73981;BME280;62348;51.412;5.436;2023-01-10T12:43:34;101465.06;;;5.90;87.60
73981;BME280;62348;51.412;5.436;2023-01-10T12:45:55;101459.69;;;5.90;86.98
73981;BME280;62348;51.412;5.436;2023-01-10T12:48:28;101450.81;;;5.89;87.37
73981;BME280;62348;51.412;5.436;2023-01-10T12:51:05;101443.38;;;5.91;87.25
73981;BME280;62348;51.412;5.436;2023-01-10T12:53:47;101447.09;;;5.97;86.70
73981;BME280;62348;51.412;5.436;2023-01-10T12:56:15;101439.25;;;5.95;86.47
73981;BME280;62348;51.412;5.436;2023-01-10T12:58:49;101443.38;;;5.98;86.19
73981;BME280;62348;51.412;5.436;2023-01-10T13:01:26;101443.97;;;6.00;85.92
73981;BME280;62348;51.412;5.436;2023-01-10T13:03:56;101441.91;;;6.02;86.09
73981;BME280;62348;51.412;5.436;2023-01-10T13:06:30;101440.84;;;6.03;86.28
73981;BME280;62348;51.412;5.436;2023-01-10T13:08:58;101432.59;;;6.04;85.96
73981;BME280;62348;51.412;5.436;2023-01-10T13:11:29;101425.34;;;6.05;85.81
73981;BME280;62348;51.412;5.436;2023-01-10T13:13:59;101412.56;;;6.07;85.40
73981;BME280;62348;51.412;5.436;2023-01-10T13:16:31;101404.50;;;6.07;86.15
73981;BME280;62348;51.412;5.436;2023-01-10T13:21:41;101394.13;;;6.11;85.52
73981;BME280;62348;51.412;5.436;2023-01-10T13:24:18;101393.91;;;6.12;86.11
73981;BME280;62348;51.412;5.436;2023-01-10T13:26:58;101392.88;;;6.13;86.03
73981;BME280;62348;51.412;5.436;2023-01-10T13:29:38;101385.44;;;6.15;86.06
73981;BME280;62348;51.412;5.436;2023-01-10T13:32:20;101381.94;;;6.15;85.53
73981;BME280;62348;51.412;5.436;2023-01-10T13:34:46;101372.59;;;6.17;85.26
73981;BME280;62348;51.412;5.436;2023-01-10T13:37:21;101380.25;;;6.20;85.26
73981;BME280;62348;51.412;5.436;2023-01-10T13:40:01;101368.66;;;6.20;85.61
73981;BME280;62348;51.412;5.436;2023-01-10T13:42:33;101363.66;;;6.23;85.07
73981;BME280;62348;51.412;5.436;2023-01-10T13:45:22;101367.81;;;6.26;84.99
73981;BME280;62348;51.412;5.436;2023-01-10T13:52:48;101366.75;;;6.27;86.96
73981;BME280;62348;51.412;5.436;2023-01-10T13:55:24;101366.97;;;6.25;87.40
73981;BME280;62348;51.412;5.436;2023-01-10T13:57:53;101360.38;;;6.21;88.25
73981;BME280;62348;51.412;5.436;2023-01-10T14:14:18;101335.50;;;6.08;90.53
73981;BME280;62348;51.412;5.436;2023-01-10T14:16:48;101332.44;;;6.04;91.04
73981;BME280;62348;51.412;5.436;2023-01-10T14:19:30;101328.09;;;6.03;91.38
73981;BME280;62348;51.412;5.436;2023-01-10T14:21:58;101327.94;;;5.98;91.21
73981;BME280;62348;51.412;5.436;2023-01-10T14:24:29;101313.09;;;5.95;92.09
73981;BME280;62348;51.412;5.436;2023-01-10T14:26:59;101316.19;;;5.92;92.48
73981;BME280;62348;51.412;5.436;2023-01-10T14:29:32;101308.34;;;5.91;92.08
73981;BME280;62348;51.412;5.436;2023-01-10T14:31:59;101316.84;;;5.87;92.62
73981;BME280;62348;51.412;5.436;2023-01-10T14:34:27;101298.50;;;5.84;92.84
73981;BME280;62348;51.412;5.436;2023-01-10T14:36:59;101291.69;;;5.82;93.67
73981;BME280;62348;51.412;5.436;2023-01-10T14:39:26;101291.28;;;5.78;93.21
73981;BME280;62348;51.412;5.436;2023-01-10T14:41:57;101293.84;;;5.73;93.26
73981;BME280;62348;51.412;5.436;2023-01-10T14:44:26;101288.06;;;5.70;93.01
73981;BME280;62348;51.412;5.436;2023-01-10T14:46:56;101264.34;;;5.66;93.27
73981;BME280;62348;51.412;5.436;2023-01-10T14:49:34;101263.97;;;5.63;93.98
73981;BME280;62348;51.412;5.436;2023-01-10T14:52:17;101251.00;;;5.60;94.04